createdAt,value
2019-04-27T00:02:26.574Z,22.60
2019-04-27T00:05:03.975Z,26.10
2019-04-27T00:07:40.489Z,20.17
2019-04-27T00:10:33.522Z,22.87
2019-04-27T00:13:05.733Z,21.33
2019-04-27T00:15:47.200Z,25.10
2019-04-27T00:18:26.824Z,18.60
2019-04-27T00:21:06.848Z,24.67
2019-04-27T00:23:36.511Z,27.00
2019-04-27T00:26:06.363Z,25.20
2019-04-27T00:28:36.631Z,22.00
2019-04-27T00:31:06.449Z,27.47
2019-04-27T00:33:36.111Z,29.07
2019-04-27T00:36:13.646Z,28.23
2019-04-27T00:38:54.934Z,25.67
2019-04-27T00:41:24.683Z,24.03
2019-04-27T00:43:54.428Z,24.77
2019-04-27T00:46:24.133Z,28.00
2019-04-27T00:48:53.813Z,30.63
2019-04-27T00:51:23.572Z,29.87
2019-04-27T00:53:54.967Z,27.33
2019-04-27T00:56:35.080Z,32.00
2019-04-27T00:59:23.973Z,26.13
2019-04-27T01:02:05.737Z,20.47
2019-04-27T01:04:35.486Z,23.73
2019-04-27T01:07:05.231Z,24.97
2019-04-27T01:09:35.442Z,28.97
2019-04-27T01:12:05.374Z,33.53
2019-04-27T01:14:35.188Z,35.93
2019-04-27T01:17:04.881Z,26.03
2019-04-27T01:19:34.581Z,31.53
2019-04-27T01:22:04.324Z,29.80
2019-04-27T01:24:34.002Z,25.10
2019-04-27T01:27:24.968Z,24.40
2019-04-27T01:29:55.665Z,33.77
2019-04-27T01:32:25.347Z,26.43
2019-04-27T01:34:55.086Z,21.57
2019-04-27T01:37:24.764Z,22.77
2019-04-27T01:39:54.433Z,25.77
2019-04-27T01:42:24.131Z,22.27
2019-04-27T01:44:53.802Z,27.27
2019-04-27T01:47:23.478Z,27.47
2019-04-27T01:49:53.150Z,21.97
2019-04-27T01:52:22.822Z,31.53
2019-04-27T01:54:52.493Z,25.07
2019-04-27T01:57:22.166Z,21.57
2019-04-27T01:59:51.827Z,27.97
2019-04-27T02:02:34.483Z,22.77
2019-04-27T02:05:22.920Z,27.40
2019-04-27T02:07:52.602Z,24.73
2019-04-27T02:10:22.259Z,24.80
2019-04-27T02:12:52.034Z,26.97
2019-04-27T02:15:21.847Z,26.73
2019-04-27T02:17:51.606Z,21.47
2019-04-27T02:20:21.340Z,22.83
2019-04-27T02:22:51.022Z,24.17
2019-04-27T02:25:21.190Z,29.90
2019-04-27T02:27:59.170Z,27.70
2019-04-27T02:31:21.842Z,24.13
2019-04-27T02:33:59.592Z,22.70
2019-04-27T02:36:30.515Z,23.03
2019-04-27T02:39:00.403Z,23.23
2019-04-27T02:41:31.767Z,26.17
2019-04-27T02:44:20.508Z,23.70
2019-04-27T02:46:50.502Z,22.77
2019-04-27T02:49:20.353Z,25.83
2019-04-27T02:51:56.541Z,31.30
2019-04-27T02:54:26.221Z,25.03
2019-04-27T02:56:55.889Z,25.30
2019-04-27T02:59:25.555Z,24.83
2019-04-27T03:02:06.987Z,26.40
2019-04-27T03:04:39.653Z,26.57
2019-04-27T03:07:08.019Z,32.47
2019-04-27T03:09:39.540Z,25.33
2019-04-27T03:12:10.175Z,21.03
2019-04-27T03:14:50.566Z,26.43
2019-04-27T03:17:42.557Z,25.13
2019-04-27T03:23:04.041Z,33.40
2019-04-27T03:26:00.318Z,35.93
2019-04-27T03:28:30.171Z,36.93
2019-04-27T03:31:02.625Z,31.80
2019-04-27T03:33:32.759Z,34.87
2019-04-27T03:36:03.314Z,36.90
2019-04-27T03:38:33.096Z,37.60
2019-04-27T03:41:02.857Z,42.53
2019-04-27T03:43:32.631Z,37.40
2019-04-27T03:46:02.509Z,36.40
2019-04-27T03:48:32.214Z,38.60
2019-04-27T03:51:19.716Z,39.47
2019-04-27T03:54:06.705Z,39.70
2019-04-27T03:56:50.799Z,34.00
2019-04-27T03:59:40.530Z,37.90
2019-04-27T04:02:10.263Z,34.87
2019-04-27T04:04:40.692Z,37.20
2019-04-27T04:07:15.704Z,33.77
2019-04-27T04:09:45.530Z,39.57
2019-04-27T04:12:21.914Z,33.17
2019-04-27T04:14:51.585Z,37.60
2019-04-27T04:17:22.182Z,48.27
2019-04-27T04:19:57.573Z,51.83
2019-04-27T04:22:23.305Z,46.20
2019-04-27T04:24:52.996Z,34.20
2019-04-27T04:27:22.673Z,43.93
2019-04-27T04:29:53.325Z,42.70
2019-04-27T04:32:23.011Z,44.03
2019-04-27T04:34:52.761Z,44.03
2019-04-27T04:37:22.427Z,41.03
2019-04-27T04:39:53.487Z,52.37
2019-04-27T04:42:41.549Z,49.77
2019-04-27T04:45:25.726Z,40.00
2019-04-27T04:47:59.616Z,43.23
2019-04-27T04:50:30.382Z,45.63
2019-04-27T04:53:00.345Z,50.23
2019-04-27T04:55:30.752Z,47.77
2019-04-27T04:58:00.653Z,48.90
2019-04-27T05:00:30.332Z,43.63
2019-04-27T05:03:00.001Z,49.37
2019-04-27T05:05:29.681Z,45.63
2019-04-27T05:08:00.713Z,42.67
2019-04-27T05:10:31.686Z,50.77
2019-04-27T05:13:01.350Z,44.03
2019-04-27T05:15:31.024Z,43.37
2019-04-27T05:18:00.684Z,42.10
2019-04-27T05:20:49.393Z,41.70
2019-04-27T05:23:19.068Z,44.27
2019-04-27T05:25:49.370Z,42.87
2019-04-27T05:28:19.168Z,49.97
2019-04-27T05:30:49.103Z,40.70
2019-04-27T05:33:18.960Z,49.30
2019-04-27T05:35:49.718Z,40.53
2019-04-27T05:38:19.533Z,43.20
2019-04-27T05:40:49.921Z,42.40
2019-04-27T05:43:25.570Z,41.97
2019-04-27T05:46:36.770Z,41.07
2019-04-27T05:49:09.558Z,40.70
2019-04-27T05:51:41.772Z,36.70
2019-04-27T05:54:10.773Z,40.70
2019-04-27T05:56:40.464Z,39.97
2019-04-27T05:59:10.129Z,37.20
2019-04-27T06:01:39.817Z,42.63
2019-04-27T06:04:09.565Z,40.37
2019-04-27T06:06:39.868Z,46.70
2019-04-27T06:09:09.798Z,39.43
2019-04-27T06:11:40.104Z,38.50
2019-04-27T06:14:10.792Z,41.00
2019-04-27T06:16:40.760Z,37.40
2019-04-27T06:19:10.420Z,37.10
2019-04-27T06:21:40.330Z,38.17
2019-04-27T06:24:10.066Z,40.80
2019-04-27T06:26:40.074Z,42.47
2019-04-27T06:29:11.088Z,40.27
2019-04-27T06:31:40.759Z,34.77
2019-04-27T06:34:10.431Z,36.10
2019-04-27T06:36:40.145Z,38.30
2019-04-27T06:39:10.017Z,33.93
2019-04-27T06:41:40.111Z,32.60
2019-04-27T06:44:11.373Z,36.13
2019-04-27T06:46:41.413Z,33.53
2019-04-27T06:49:11.375Z,31.63
2019-04-27T06:51:41.246Z,32.67
2019-04-27T06:54:10.936Z,34.80
2019-04-27T06:56:40.608Z,31.50
2019-04-27T06:59:10.295Z,33.90
2019-04-27T07:01:39.972Z,30.57
2019-04-27T07:04:10.892Z,32.97
2019-04-27T07:06:52.944Z,35.63
2019-04-27T07:09:12.596Z,30.97
2019-04-27T07:11:42.277Z,31.73
2019-04-27T07:14:11.964Z,30.27
2019-04-27T07:16:41.642Z,28.53
2019-04-27T07:19:11.337Z,29.17
2019-04-27T07:21:41.007Z,30.90
2019-04-27T07:24:10.764Z,29.67
2019-04-27T07:26:40.448Z,28.47
2019-04-27T07:29:10.137Z,28.17
2019-04-27T07:31:40.884Z,25.07
2019-04-27T07:34:10.654Z,25.63
2019-04-27T07:36:40.322Z,27.30
2019-04-27T07:39:11.534Z,23.93
2019-04-27T07:41:41.321Z,27.47
2019-04-27T07:44:16.322Z,26.17
2019-04-27T07:47:05.018Z,29.23
2019-04-27T07:49:34.712Z,28.37
2019-04-27T07:52:04.486Z,23.93
2019-04-27T07:54:34.158Z,23.83
2019-04-27T07:57:03.916Z,22.93
2019-04-27T07:59:33.751Z,21.00
2019-04-27T08:02:03.535Z,21.93
2019-04-27T08:04:33.305Z,23.90
2019-04-27T08:07:02.978Z,25.17
2019-04-27T08:09:32.676Z,21.17
2019-04-27T08:12:02.382Z,21.57
2019-04-27T08:14:32.118Z,23.60
2019-04-27T08:17:01.866Z,23.73
2019-04-27T08:19:31.550Z,23.90
2019-04-27T08:22:01.651Z,23.10
2019-04-27T08:24:31.655Z,23.13
2019-04-27T08:27:19.467Z,22.33
2019-04-27T08:30:09.487Z,26.73
2019-04-27T08:32:42.091Z,27.07
2019-04-27T08:35:12.821Z,23.00
2019-04-27T08:37:42.543Z,25.23
2019-04-27T08:40:12.880Z,23.60
2019-04-27T08:42:42.719Z,23.10
2019-04-27T08:45:13.305Z,24.67
2019-04-27T08:47:42.999Z,21.97
2019-04-27T08:50:13.033Z,23.53
2019-04-27T08:52:42.702Z,25.27
2019-04-27T08:55:12.839Z,22.57
2019-04-27T08:57:42.511Z,21.17
2019-04-27T09:00:12.542Z,22.63
2019-04-27T09:02:46.941Z,19.53
2019-04-27T09:05:13.652Z,20.47
2019-04-27T09:07:53.305Z,18.23
2019-04-27T09:10:31.932Z,18.93
2019-04-27T09:13:14.328Z,16.80
2019-04-27T09:16:00.132Z,16.87
2019-04-27T09:18:32.567Z,13.60
2019-04-27T09:21:03.199Z,16.13
2019-04-27T09:23:32.892Z,17.63
2019-04-27T09:26:02.593Z,12.00
2019-04-27T09:28:32.282Z,10.50
2019-04-27T09:31:01.968Z,12.00
2019-04-27T09:33:31.629Z,9.40
2019-04-27T09:36:01.373Z,9.67
2019-04-27T09:38:31.029Z,10.90
2019-04-27T09:41:00.709Z,8.30
2019-04-27T09:43:30.370Z,8.93
2019-04-27T09:46:00.057Z,9.58
2019-04-27T09:48:29.712Z,9.30
2019-04-27T09:50:59.461Z,10.17
2019-04-27T09:53:29.117Z,10.57
2019-04-27T09:55:59.860Z,8.63
2019-04-27T09:58:29.512Z,6.70
2019-04-27T10:00:59.347Z,9.53
2019-04-27T10:03:29.003Z,12.67
2019-04-27T10:05:58.731Z,7.17
2019-04-27T10:08:28.521Z,6.73
2019-04-27T10:10:58.195Z,5.87
2019-04-27T10:13:27.891Z,7.00
2019-04-27T10:15:57.541Z,8.77
2019-04-27T10:18:27.202Z,8.83
2019-04-27T10:21:01.734Z,7.10
2019-04-27T10:23:28.237Z,5.93
2019-04-27T10:25:57.894Z,6.10
2019-04-27T10:28:27.653Z,2.53
2019-04-27T10:30:57.321Z,5.37
2019-04-27T10:33:28.051Z,4.50
2019-04-27T10:35:57.710Z,5.63
2019-04-27T10:38:27.416Z,3.87
2019-04-27T10:40:57.219Z,3.37
2019-04-27T10:43:26.882Z,3.73
2019-04-27T10:45:56.624Z,5.27
2019-04-27T10:48:26.628Z,3.80
2019-04-27T10:50:56.393Z,2.80
2019-04-27T10:53:26.889Z,6.10
2019-04-27T10:55:56.746Z,4.47
2019-04-27T10:58:27.425Z,4.50
2019-04-27T11:00:59.049Z,2.53
2019-04-27T11:03:46.407Z,4.27
2019-04-27T11:06:38.641Z,5.53
2019-04-27T11:09:10.282Z,4.47
2019-04-27T11:11:41.654Z,4.53
2019-04-27T11:14:11.747Z,4.77
2019-04-27T11:16:41.490Z,3.47
2019-04-27T11:19:11.268Z,3.97
2019-04-27T11:21:40.966Z,3.50
2019-04-27T11:24:10.637Z,3.80
2019-04-27T11:26:40.458Z,3.83
2019-04-27T11:29:10.218Z,2.90
2019-04-27T11:31:39.944Z,4.10
2019-04-27T11:34:09.614Z,3.23
2019-04-27T11:36:57.193Z,2.97
2019-04-27T11:39:27.734Z,3.83
2019-04-27T11:41:57.376Z,3.17
2019-04-27T11:44:27.055Z,6.33
2019-04-27T11:46:56.708Z,3.63
2019-04-27T11:49:26.378Z,3.53
2019-04-27T11:51:56.738Z,2.73
2019-04-27T11:54:27.571Z,2.03
2019-04-27T11:56:57.438Z,2.93
2019-04-27T11:59:27.206Z,2.22
2019-04-27T12:01:56.837Z,1.67
2019-04-27T12:04:26.532Z,1.97
2019-04-27T12:06:56.560Z,2.37
2019-04-27T12:09:26.466Z,2.30
2019-04-27T12:12:06.764Z,6.17
2019-04-27T12:14:27.478Z,3.63
2019-04-27T12:16:57.126Z,3.37
2019-04-27T12:19:26.987Z,3.17
2019-04-27T12:21:56.828Z,4.07
2019-04-27T12:24:26.830Z,4.53
2019-04-27T12:27:15.980Z,4.73
2019-04-27T12:30:03.433Z,5.03
2019-04-27T12:32:35.914Z,4.10
2019-04-27T12:35:06.703Z,3.97
2019-04-27T12:37:36.688Z,5.03
2019-04-27T12:40:06.954Z,4.63
2019-04-27T12:42:36.701Z,5.60
2019-04-27T12:45:06.939Z,3.90
2019-04-27T12:47:38.122Z,2.53
2019-04-27T12:50:09.907Z,2.57
2019-04-27T12:52:40.342Z,5.60
2019-04-27T12:55:18.027Z,3.10
2019-04-27T12:58:04.021Z,4.43
2019-04-27T13:00:37.554Z,3.17
2019-04-27T13:03:07.242Z,4.23
2019-04-27T13:05:36.922Z,2.07
2019-04-27T13:08:06.596Z,2.30
2019-04-27T13:10:37.425Z,2.87
2019-04-27T13:13:08.064Z,2.00
2019-04-27T13:15:37.763Z,2.07
2019-04-27T13:18:07.498Z,3.27
2019-04-27T13:20:37.188Z,2.43
2019-04-27T13:23:07.373Z,2.77
2019-04-27T13:25:38.512Z,1.30
2019-04-27T13:28:08.342Z,1.73
2019-04-27T13:30:38.027Z,2.17
2019-04-27T13:33:07.702Z,1.93
2019-04-27T13:35:37.400Z,1.83
2019-04-27T13:38:07.092Z,2.27
2019-04-27T13:40:39.527Z,2.63
2019-04-27T13:43:17.732Z,2.67
2019-04-27T13:45:55.044Z,2.47
2019-04-27T13:48:42.233Z,2.63
2019-04-27T13:51:14.451Z,3.00
2019-04-27T13:53:45.607Z,2.93
2019-04-27T13:56:17.278Z,1.03
2019-04-27T13:58:46.964Z,1.20
2019-04-27T14:01:16.789Z,0.90
2019-04-27T14:03:46.416Z,1.70
2019-04-27T14:06:16.124Z,0.70
2019-04-27T14:08:45.806Z,1.10
2019-04-27T14:11:18.388Z,2.50
2019-04-27T14:13:49.149Z,2.47
2019-04-27T14:16:19.064Z,1.17
2019-04-27T14:18:48.799Z,0.70
2019-04-27T14:21:18.553Z,2.67
2019-04-27T14:23:48.509Z,0.50
2019-04-27T14:26:18.520Z,0.37
2019-04-27T14:28:50.011Z,0.57
2019-04-27T14:31:19.878Z,0.40
2019-04-27T14:33:49.587Z,1.07
2019-04-27T14:36:19.274Z,0.80
2019-04-27T14:38:50.053Z,3.43
2019-04-27T14:41:20.033Z,1.83
2019-04-27T14:44:04.950Z,2.57
2019-04-27T14:46:21.186Z,1.60
2019-04-27T14:48:50.846Z,1.63
2019-04-27T14:51:20.523Z,3.60
2019-04-27T14:53:50.266Z,1.83
2019-04-27T14:56:20.209Z,0.87
2019-04-27T14:58:50.054Z,1.10
2019-04-27T15:01:20.545Z,1.30
2019-04-27T15:03:50.316Z,1.73
2019-04-27T15:06:22.050Z,1.07
2019-04-27T15:08:51.808Z,2.30
2019-04-27T15:11:21.480Z,2.73
2019-04-27T15:13:53.285Z,5.20
2019-04-27T15:16:23.658Z,1.53
2019-04-27T15:18:57.705Z,1.87
2019-04-27T15:21:27.461Z,3.33
2019-04-27T15:23:57.199Z,1.03
2019-04-27T15:26:26.880Z,2.03
2019-04-27T15:28:59.009Z,2.77
2019-04-27T15:31:40.807Z,1.70
2019-04-27T15:34:29.121Z,2.83
2019-04-27T15:37:23.675Z,2.50
2019-04-27T15:40:15.466Z,1.40
2019-04-27T15:43:00.515Z,1.13
2019-04-27T15:45:30.175Z,1.40
2019-04-27T15:47:59.931Z,2.57
2019-04-27T15:50:32.220Z,3.30
2019-04-27T15:53:05.384Z,2.03
2019-04-27T15:55:36.849Z,3.27
2019-04-27T15:58:04.027Z,1.80
2019-04-27T16:00:33.924Z,3.23
2019-04-27T16:03:03.615Z,5.13
2019-04-27T16:05:36.094Z,1.70
2019-04-27T16:08:12.482Z,4.40
2019-04-27T16:10:40.067Z,5.50
2019-04-27T16:13:13.431Z,4.77
2019-04-27T16:15:39.995Z,1.33
2019-04-27T16:18:09.663Z,1.50
2019-04-27T16:20:39.401Z,2.10
2019-04-27T16:23:09.159Z,3.83
2019-04-27T16:25:48.421Z,2.13
2019-04-27T16:28:13.357Z,3.33
2019-04-27T16:30:45.598Z,3.67
2019-04-27T16:33:15.438Z,3.10
2019-04-27T16:35:45.576Z,2.73
2019-04-27T16:38:33.612Z,2.67
2019-04-27T16:41:03.310Z,4.67
2019-04-27T16:43:33.059Z,4.67
2019-04-27T16:46:04.656Z,3.17
2019-04-27T16:48:36.241Z,4.37
2019-04-27T16:51:06.013Z,5.77
2019-04-27T16:53:39.426Z,2.60
2019-04-27T16:56:14.548Z,4.97
2019-04-27T16:58:39.672Z,3.40
2019-04-27T17:01:23.986Z,3.37
2019-04-27T17:03:54.646Z,4.23
2019-04-27T17:06:24.442Z,1.97
2019-04-27T17:08:57.313Z,2.60
2019-04-27T17:11:25.573Z,2.87
2019-04-27T17:14:05.632Z,5.47
2019-04-27T17:16:58.138Z,3.80
2019-04-27T17:19:35.776Z,5.77
2019-04-27T17:22:05.187Z,2.30
2019-04-27T17:24:45.269Z,3.13
2019-04-27T17:27:11.125Z,5.00
2019-04-27T17:29:41.181Z,3.37
2019-04-27T17:32:42.489Z,3.37
2019-04-27T17:35:14.864Z,3.80
2019-04-27T17:37:43.669Z,5.73
2019-04-27T17:40:15.387Z,5.10
2019-04-27T17:42:45.050Z,7.33
2019-04-27T17:45:15.065Z,6.97
2019-04-27T17:47:44.721Z,4.80
2019-04-27T17:50:18.463Z,5.43
2019-04-27T17:52:48.427Z,4.90
2019-04-27T17:55:24.101Z,6.53
2019-04-27T17:57:49.214Z,5.27
2019-04-27T18:00:19.581Z,4.97
2019-04-27T18:02:49.235Z,4.20
2019-04-27T18:05:18.913Z,3.43
2019-04-27T18:07:48.759Z,4.23
2019-04-27T18:10:23.824Z,2.80
2019-04-27T18:12:50.917Z,2.87
2019-04-27T18:15:20.669Z,4.80
2019-04-27T18:17:52.491Z,4.83
2019-04-27T18:20:24.538Z,5.47
2019-04-27T18:23:00.309Z,5.57
2019-04-27T18:25:35.703Z,16.67
2019-04-27T18:28:15.138Z,6.63
2019-04-27T18:31:01.474Z,9.43
2019-04-27T18:33:32.704Z,7.43
2019-04-27T18:36:05.479Z,5.27
2019-04-27T18:38:35.443Z,5.47
2019-04-27T18:41:07.990Z,5.23
2019-04-27T18:43:38.878Z,4.20
2019-04-27T18:46:09.103Z,4.60
2019-04-27T18:48:58.449Z,5.73
2019-04-27T18:52:04.343Z,4.37
2019-04-27T18:54:38.210Z,4.60
2019-04-27T18:57:06.078Z,6.37
2019-04-27T18:59:35.727Z,5.90
2019-04-27T19:02:05.474Z,7.43
2019-04-27T19:04:35.133Z,6.97
2019-04-27T19:07:04.900Z,5.07
2019-04-27T19:09:34.543Z,4.93
2019-04-27T19:12:04.304Z,6.23
2019-04-27T19:14:34.010Z,6.53
2019-04-27T19:17:03.777Z,7.13
2019-04-27T19:19:33.499Z,8.27
2019-04-27T19:22:03.170Z,6.10
2019-04-27T19:24:32.874Z,10.37
2019-04-27T19:27:18.024Z,5.50
2019-04-27T19:29:50.629Z,6.33
2019-04-27T19:32:20.307Z,6.20
2019-04-27T19:34:49.977Z,5.63
2019-04-27T19:37:19.847Z,9.47
2019-04-27T19:39:49.820Z,6.03
2019-04-27T19:42:20.232Z,4.77
2019-04-27T19:44:50.331Z,4.47
2019-04-27T19:47:20.017Z,6.23
2019-04-27T19:49:49.709Z,5.97
2019-04-27T19:52:22.493Z,6.03
2019-04-27T19:54:50.840Z,5.57
2019-04-27T19:57:31.876Z,5.83
2019-04-27T19:59:55.363Z,5.73
2019-04-27T20:02:25.043Z,3.97
2019-04-27T20:05:01.123Z,3.87
2019-04-27T20:07:32.661Z,4.23
2019-04-27T20:10:04.184Z,3.03
2019-04-27T20:12:34.025Z,2.60
2019-04-27T20:15:04.042Z,1.07
2019-04-27T20:17:34.354Z,1.13
2019-04-27T20:20:05.648Z,0.70
2019-04-27T20:22:35.358Z,2.33
2019-04-27T20:25:05.853Z,0.33
2019-04-27T20:27:45.985Z,0.30
2019-04-27T20:30:08.668Z,0.30
2019-04-27T20:32:38.816Z,1.53
2019-04-27T20:35:08.945Z,0.80
2019-04-27T20:37:38.680Z,1.73
2019-04-27T20:40:11.183Z,1.10
2019-04-27T20:42:41.524Z,2.30
2019-04-27T20:45:12.643Z,2.53
2019-04-27T20:47:42.326Z,2.77
2019-04-27T20:50:12.073Z,3.20
2019-04-27T20:53:00.763Z,2.77
2019-04-27T20:55:32.223Z,3.17
2019-04-27T20:58:02.589Z,2.67
2019-04-27T21:00:32.752Z,3.40
2019-04-27T21:03:07.161Z,3.20
2019-04-27T21:06:01.541Z,4.53
2019-04-27T21:08:33.728Z,2.87
2019-04-27T21:11:03.414Z,2.50
2019-04-27T21:13:33.078Z,2.50
2019-04-27T21:16:02.764Z,2.30
2019-04-27T21:18:32.446Z,3.23
2019-04-27T21:21:02.173Z,3.70
2019-04-27T21:23:31.856Z,2.17
2019-04-27T21:26:02.066Z,2.07
2019-04-27T21:28:32.456Z,2.70
2019-04-27T21:31:02.162Z,2.43
2019-04-27T21:33:31.918Z,1.87
2019-04-27T21:36:01.587Z,3.83
2019-04-27T21:38:31.248Z,5.27
2019-04-27T21:41:00.907Z,2.30
2019-04-27T21:43:32.253Z,4.47
2019-04-27T21:46:01.982Z,4.87
2019-04-27T21:48:31.635Z,2.40
2019-04-27T21:51:01.570Z,3.27
2019-04-27T21:53:38.339Z,2.87
2019-04-27T21:56:11.143Z,2.63
2019-04-27T21:58:42.060Z,1.63
2019-04-27T22:01:24.808Z,4.70
2019-04-27T22:03:54.832Z,4.40
2019-04-27T22:06:24.743Z,3.53
2019-04-27T22:08:55.824Z,3.03
2019-04-27T22:11:25.539Z,2.87
2019-04-27T22:13:55.446Z,2.10
2019-04-27T22:16:25.298Z,5.37
2019-04-27T22:18:54.952Z,4.00
2019-04-27T22:21:24.614Z,4.03
2019-04-27T22:24:08.938Z,3.83
2019-04-27T22:26:38.607Z,4.67
2019-04-27T22:29:08.273Z,4.80
2019-04-27T22:31:38.011Z,9.17
2019-04-27T22:34:07.743Z,4.17
2019-04-27T22:36:37.404Z,6.53
2019-04-27T22:39:25.322Z,6.23
2019-04-27T22:42:02.420Z,4.73
2019-04-27T22:44:41.493Z,3.77
2019-04-27T22:47:12.932Z,4.10
2019-04-27T22:49:42.658Z,5.30
2019-04-27T22:52:12.315Z,9.30
2019-04-27T22:54:42.235Z,5.17
2019-04-27T22:57:18.504Z,8.93
2019-04-27T22:59:58.329Z,8.57
2019-04-27T23:02:42.030Z,5.77
2019-04-27T23:05:11.865Z,4.70
2019-04-27T23:07:41.585Z,6.30
2019-04-27T23:10:11.364Z,15.63
2019-04-27T23:12:42.017Z,10.57
2019-04-27T23:15:16.273Z,10.90
2019-04-27T23:17:52.867Z,5.90
2019-04-27T23:20:22.799Z,5.70
2019-04-27T23:22:52.529Z,6.80
2019-04-27T23:25:22.187Z,7.87
2019-04-27T23:27:51.852Z,4.63
2019-04-27T23:30:24.850Z,3.33
2019-04-27T23:32:54.633Z,5.73
2019-04-27T23:35:24.297Z,6.60
2019-04-27T23:37:54.034Z,6.07
2019-04-27T23:40:23.684Z,3.67
2019-04-27T23:42:53.446Z,10.97
2019-04-27T23:45:23.105Z,8.27
2019-04-27T23:47:52.792Z,8.53
2019-04-27T23:50:22.918Z,9.30
2019-04-27T23:53:23.474Z,17.63
2019-04-27T23:55:53.135Z,7.40
2019-04-27T23:58:22.789Z,8.60
